createdAt,value
2022-09-13T00:02:16.823Z,5.83
2022-09-13T00:04:43.582Z,5.47
2022-09-13T00:07:10.296Z,5.93
2022-09-13T00:09:37.472Z,4.90
2022-09-13T00:12:04.532Z,5.30
2022-09-13T00:14:31.340Z,4.90
2022-09-13T00:16:58.329Z,8.73
2022-09-13T00:19:25.047Z,5.33
2022-09-13T00:21:51.839Z,5.70
2022-09-13T00:24:18.566Z,4.67
2022-09-13T00:26:45.712Z,5.27
2022-09-13T00:29:12.423Z,5.40
2022-09-13T00:31:39.167Z,5.30
2022-09-13T00:34:05.888Z,5.80
2022-09-13T00:36:32.591Z,6.80
2022-09-13T00:39:01.013Z,5.47
2022-09-13T00:41:27.754Z,4.90
2022-09-13T00:44:01.062Z,5.27
2022-09-13T00:46:42.434Z,5.27
2022-09-13T00:49:20.034Z,6.37
2022-09-13T00:51:59.514Z,4.93
2022-09-13T00:54:35.299Z,5.47
2022-09-13T00:57:05.278Z,5.37
2022-09-13T00:59:43.008Z,4.77
2022-09-13T01:02:10.832Z,5.03
2022-09-13T01:04:42.394Z,4.70
2022-09-13T01:07:13.626Z,4.80
2022-09-13T01:09:46.819Z,4.93
2022-09-13T01:12:36.314Z,5.13
2022-09-13T01:15:05.778Z,4.60
2022-09-13T01:17:34.847Z,4.90
2022-09-13T01:20:05.922Z,4.73
2022-09-13T01:23:09.845Z,4.40
2022-09-13T01:26:13.865Z,9.93
2022-09-13T01:29:46.734Z,4.83
2022-09-13T01:32:21.746Z,4.50
2022-09-13T01:35:54.417Z,7.03
2022-09-13T01:38:50.866Z,4.53
2022-09-13T01:41:47.269Z,4.80
2022-09-13T01:45:09.268Z,5.00
2022-09-13T01:48:02.850Z,4.60
2022-09-13T01:50:57.625Z,4.57
2022-09-13T01:53:45.765Z,4.90
2022-09-13T01:56:46.711Z,6.17
2022-09-13T01:59:22.805Z,4.50
2022-09-13T02:02:05.519Z,4.60
2022-09-13T02:04:44.982Z,4.37
2022-09-13T02:07:21.486Z,4.80
2022-09-13T02:09:58.082Z,4.73
2022-09-13T02:12:30.966Z,5.27
2022-09-13T02:15:20.927Z,4.93
2022-09-13T02:18:30.951Z,5.17
2022-09-13T02:21:10.578Z,4.13
2022-09-13T02:23:54.793Z,4.47
2022-09-13T02:26:25.642Z,4.33
2022-09-13T02:28:55.711Z,4.87
2022-09-13T02:31:34.325Z,4.47
2022-09-13T02:34:12.211Z,6.70
2022-09-13T02:36:42.853Z,4.97
2022-09-13T02:39:16.360Z,5.77
2022-09-13T02:41:56.263Z,4.20
2022-09-13T02:44:35.281Z,4.73
2022-09-13T02:47:22.521Z,4.60
2022-09-13T02:50:10.120Z,4.63
2022-09-13T02:53:16.152Z,4.63
2022-09-13T02:56:04.081Z,5.13
2022-09-13T02:58:46.949Z,4.30
2022-09-13T03:01:15.130Z,5.97
2022-09-13T03:03:42.391Z,5.03
2022-09-13T03:06:09.201Z,4.77
2022-09-13T03:08:37.466Z,4.63
2022-09-13T03:11:31.077Z,4.50
2022-09-13T03:14:51.003Z,4.70
2022-09-13T03:17:35.723Z,4.20
2022-09-13T03:20:09.343Z,4.30
2022-09-13T03:23:00.879Z,4.50
2022-09-13T03:26:13.482Z,4.03
2022-09-13T03:28:54.868Z,4.60
2022-09-13T03:31:33.116Z,4.40
2022-09-13T03:34:27.347Z,4.07
2022-09-13T03:37:48.330Z,4.43
2022-09-13T03:40:33.065Z,4.40
2022-09-13T03:43:18.098Z,5.03
2022-09-13T03:45:58.864Z,4.53
2022-09-13T03:48:27.742Z,4.60
2022-09-13T03:50:55.185Z,4.83
2022-09-13T03:53:26.569Z,4.13
2022-09-13T03:55:54.627Z,4.27
2022-09-13T03:58:22.715Z,4.60
2022-09-13T04:00:49.477Z,4.30
2022-09-13T04:03:16.241Z,5.00
2022-09-13T04:05:43.041Z,4.37
2022-09-13T04:08:09.793Z,4.40
2022-09-13T04:10:37.703Z,4.80
2022-09-13T04:13:04.475Z,4.77
2022-09-13T04:15:31.519Z,4.20
2022-09-13T04:17:58.615Z,4.53
2022-09-13T04:20:25.837Z,4.43
2022-09-13T04:22:57.308Z,4.70
2022-09-13T04:25:24.530Z,5.07
2022-09-13T04:27:56.387Z,7.13
2022-09-13T04:30:23.355Z,4.73
2022-09-13T04:32:50.371Z,4.73
2022-09-13T04:35:19.484Z,4.20
2022-09-13T04:37:46.669Z,4.70
2022-09-13T04:40:14.439Z,4.37
2022-09-13T04:42:41.398Z,4.93
2022-09-13T04:45:08.937Z,4.70
2022-09-13T04:47:35.627Z,4.47
2022-09-13T04:50:02.365Z,4.20
2022-09-13T04:52:29.056Z,4.97
2022-09-13T04:54:55.740Z,4.53
2022-09-13T04:57:22.714Z,4.97
2022-09-13T04:59:49.394Z,6.33
2022-09-13T05:02:16.232Z,7.67
2022-09-13T05:04:43.055Z,4.80
2022-09-13T05:07:09.751Z,5.37
2022-09-13T05:09:36.481Z,4.37
2022-09-13T05:12:03.760Z,5.00
2022-09-13T05:14:30.801Z,4.40
2022-09-13T05:16:57.480Z,4.80
2022-09-13T05:19:24.224Z,4.30
2022-09-13T05:21:50.985Z,4.60
2022-09-13T05:24:17.671Z,4.53
2022-09-13T05:26:44.389Z,4.73
2022-09-13T05:29:11.083Z,4.50
2022-09-13T05:31:41.794Z,4.13
2022-09-13T05:34:12.364Z,4.43
2022-09-13T05:36:39.710Z,4.77
2022-09-13T05:41:57.271Z,4.47
2022-09-13T05:44:23.984Z,4.77
2022-09-13T05:46:50.852Z,4.57
2022-09-13T05:49:17.537Z,5.13
2022-09-13T05:51:46.570Z,5.10
2022-09-13T05:54:13.415Z,5.27
2022-09-13T05:56:40.627Z,5.10
2022-09-13T05:59:08.822Z,4.47
2022-09-13T06:01:35.653Z,5.37
2022-09-13T06:04:02.592Z,5.17
2022-09-13T06:06:29.308Z,4.60
2022-09-13T06:08:57.625Z,4.40
2022-09-13T06:11:26.583Z,4.70
2022-09-13T06:13:53.897Z,4.83
2022-09-13T06:16:21.316Z,4.40
2022-09-13T06:18:49.086Z,4.10
2022-09-13T06:21:20.486Z,4.50
2022-09-13T06:23:50.954Z,5.43
2022-09-13T06:26:21.691Z,4.20
2022-09-13T06:28:51.135Z,4.10
2022-09-13T06:31:21.183Z,4.03
2022-09-13T06:33:48.368Z,4.30
2022-09-13T06:36:19.727Z,4.67
2022-09-13T06:38:50.749Z,3.97
2022-09-13T06:41:23.123Z,4.23
2022-09-13T06:44:01.350Z,4.17
2022-09-13T06:46:31.741Z,3.80
2022-09-13T06:49:06.227Z,4.13
2022-09-13T06:51:34.708Z,4.40
2022-09-13T06:54:03.779Z,5.27
2022-09-13T06:56:33.924Z,3.70
2022-09-13T06:59:04.964Z,3.43
2022-09-13T07:01:38.002Z,3.90
2022-09-13T07:04:09.135Z,3.33
2022-09-13T07:06:42.962Z,3.37
2022-09-13T07:09:14.027Z,3.23
2022-09-13T07:11:42.359Z,2.97
2022-09-13T07:14:13.593Z,2.90
2022-09-13T07:16:40.756Z,2.93
2022-09-13T07:19:14.128Z,2.97
2022-09-13T07:21:41.052Z,3.40
2022-09-13T07:24:08.079Z,3.10
2022-09-13T07:26:35.033Z,3.20
2022-09-13T07:29:05.762Z,3.23
2022-09-13T07:31:39.893Z,3.00
2022-09-13T07:34:12.225Z,3.07
2022-09-13T07:36:38.998Z,3.33
2022-09-13T07:39:09.873Z,4.60
2022-09-13T07:41:39.295Z,4.13
2022-09-13T07:44:08.590Z,4.93
2022-09-13T07:46:43.589Z,4.03
2022-09-13T07:49:13.903Z,6.70
2022-09-13T07:51:43.547Z,5.00
2022-09-13T07:54:14.427Z,4.07
2022-09-13T07:56:42.221Z,4.40
2022-09-13T07:59:14.857Z,4.80
2022-09-13T08:01:45.374Z,4.40
2022-09-13T08:04:17.686Z,4.20
2022-09-13T08:06:46.639Z,4.13
2022-09-13T08:09:14.458Z,3.63
2022-09-13T08:11:52.605Z,4.50
2022-09-13T08:14:22.346Z,3.67
2022-09-13T08:16:49.219Z,4.27
2022-09-13T08:19:18.838Z,4.33
2022-09-13T08:21:46.897Z,3.90
2022-09-13T08:24:18.184Z,3.53
2022-09-13T08:26:45.577Z,4.10
2022-09-13T08:29:13.399Z,3.70
2022-09-13T08:31:40.147Z,4.53
2022-09-13T08:34:11.951Z,5.77
2022-09-13T08:36:38.746Z,3.60
2022-09-13T08:39:06.398Z,3.30
2022-09-13T08:41:44.296Z,3.63
2022-09-13T08:44:36.546Z,3.37
2022-09-13T08:47:46.365Z,3.63
2022-09-13T08:50:22.976Z,3.83
2022-09-13T08:53:27.713Z,4.20
2022-09-13T08:56:10.713Z,3.60
2022-09-13T08:59:02.915Z,3.50
2022-09-13T09:02:06.273Z,3.07
2022-09-13T09:04:59.260Z,4.03
2022-09-13T09:07:40.414Z,3.37
2022-09-13T09:10:27.211Z,2.73
2022-09-13T09:13:22.696Z,2.87
2022-09-13T09:16:12.195Z,2.90
2022-09-13T09:18:44.562Z,2.70
2022-09-13T09:21:18.197Z,2.50
2022-09-13T09:23:55.619Z,2.70
2022-09-13T09:26:26.991Z,2.40
2022-09-13T09:29:01.508Z,2.40
2022-09-13T09:31:44.680Z,2.60
2022-09-13T09:34:45.267Z,2.30
2022-09-13T09:37:27.936Z,2.70
2022-09-13T09:40:04.199Z,2.30
2022-09-13T09:42:41.930Z,2.47
2022-09-13T09:45:31.693Z,2.80
2022-09-13T09:48:07.982Z,2.63
2022-09-13T09:50:43.739Z,2.30
2022-09-13T09:53:26.157Z,2.27
2022-09-13T09:56:02.602Z,1.95
2022-09-13T09:58:45.076Z,2.20
2022-09-13T10:01:37.186Z,2.07
2022-09-13T10:04:18.542Z,1.67
2022-09-13T10:06:46.353Z,1.90
2022-09-13T10:09:22.162Z,1.90
2022-09-13T10:11:58.337Z,1.97
2022-09-13T10:14:45.714Z,2.27
2022-09-13T10:17:26.630Z,3.00
2022-09-13T10:20:15.101Z,2.70
2022-09-13T10:22:42.843Z,2.40
2022-09-13T10:25:26.685Z,2.53
2022-09-13T10:28:00.335Z,4.53
2022-09-13T10:30:47.079Z,2.53
2022-09-13T10:33:39.206Z,4.10
2022-09-13T10:36:48.619Z,3.73
2022-09-13T10:39:18.739Z,3.10
2022-09-13T10:42:07.828Z,3.03
2022-09-13T10:44:39.871Z,2.43
2022-09-13T10:47:17.923Z,3.50
2022-09-13T10:49:49.339Z,2.60
2022-09-13T10:52:46.274Z,2.80
2022-09-13T10:55:18.978Z,2.10
2022-09-13T10:57:52.110Z,2.40
2022-09-13T11:00:21.481Z,2.43
2022-09-13T11:03:18.762Z,2.57
2022-09-13T11:06:17.542Z,2.53
2022-09-13T11:08:56.371Z,2.73
2022-09-13T11:11:51.835Z,2.70
2022-09-13T11:14:42.294Z,2.53
2022-09-13T11:17:27.145Z,3.53
2022-09-13T11:20:13.271Z,2.90
2022-09-13T11:23:09.797Z,2.60
2022-09-13T11:26:21.104Z,2.50
2022-09-13T11:29:02.913Z,2.60
2022-09-13T11:31:40.680Z,2.20
2022-09-13T11:34:33.084Z,2.30
2022-09-13T11:37:17.633Z,2.27
2022-09-13T11:40:02.453Z,2.47
2022-09-13T11:42:44.554Z,2.58
2022-09-13T11:45:29.434Z,2.30
2022-09-13T11:48:26.027Z,2.27
2022-09-13T11:51:19.882Z,2.73
2022-09-13T11:54:30.816Z,2.40
2022-09-13T11:57:05.412Z,2.83
2022-09-13T11:59:44.338Z,3.47
2022-09-13T12:02:32.338Z,2.43
2022-09-13T12:05:22.212Z,2.60
2022-09-13T12:08:03.254Z,2.40
2022-09-13T12:10:54.212Z,2.57
2022-09-13T12:13:32.580Z,2.10
2022-09-13T12:16:10.126Z,2.23
2022-09-13T12:18:46.183Z,2.50
2022-09-13T12:21:19.244Z,2.20
2022-09-13T12:24:00.499Z,2.50
2022-09-13T12:26:41.810Z,2.17
2022-09-13T12:29:44.243Z,2.00
2022-09-13T12:32:11.123Z,2.60
2022-09-13T12:34:49.870Z,2.20
2022-09-13T12:37:36.187Z,7.27
2022-09-13T12:40:39.489Z,2.73
2022-09-13T12:43:15.819Z,2.77
2022-09-13T12:46:58.138Z,2.80
2022-09-13T12:50:41.863Z,2.70
2022-09-13T12:53:45.247Z,2.50
2022-09-13T12:56:39.767Z,2.37
2022-09-13T12:59:35.617Z,2.50
2022-09-13T13:02:40.418Z,2.30
2022-09-13T13:05:33.050Z,2.47
2022-09-13T13:08:18.149Z,2.13
2022-09-13T13:11:00.826Z,2.03
2022-09-13T13:13:39.352Z,2.20
2022-09-13T13:16:35.182Z,1.80
2022-09-13T13:19:31.982Z,2.00
2022-09-13T13:23:04.681Z,2.10
2022-09-13T13:26:07.551Z,2.20
2022-09-13T13:28:47.138Z,1.93
2022-09-13T13:31:23.457Z,2.57
2022-09-13T13:34:11.963Z,2.10
2022-09-13T13:36:41.324Z,2.27
2022-09-13T13:39:39.680Z,2.30
2022-09-13T13:42:26.948Z,2.50
2022-09-13T13:44:53.569Z,2.10
2022-09-13T13:47:21.238Z,1.90
2022-09-13T13:50:13.795Z,2.37
2022-09-13T13:52:56.721Z,1.90
2022-09-13T13:55:49.274Z,2.13
2022-09-13T13:58:18.973Z,1.90
2022-09-13T14:00:51.143Z,2.40
2022-09-13T14:03:49.493Z,2.60
2022-09-13T14:06:49.279Z,2.37
2022-09-13T14:09:45.801Z,2.10
2022-09-13T14:12:33.221Z,2.43
2022-09-13T14:15:15.481Z,2.60
2022-09-13T14:18:37.999Z,2.73
2022-09-13T14:21:24.049Z,2.37
2022-09-13T14:24:06.938Z,3.23
2022-09-13T14:26:33.889Z,2.77
2022-09-13T14:29:00.791Z,2.47
2022-09-13T14:31:27.716Z,2.60
2022-09-13T14:33:54.439Z,2.73
2022-09-13T14:36:22.735Z,2.50
2022-09-13T14:38:59.184Z,2.20
2022-09-13T14:41:37.333Z,2.27
2022-09-13T14:44:27.758Z,2.53
2022-09-13T14:47:05.563Z,2.30
2022-09-13T14:49:41.208Z,2.00
2022-09-13T14:52:26.891Z,2.60
2022-09-13T14:54:59.153Z,2.70
2022-09-13T14:57:52.434Z,2.10
2022-09-13T15:00:23.334Z,2.30
2022-09-13T15:03:01.683Z,1.93
2022-09-13T15:05:33.572Z,2.20
2022-09-13T15:08:00.598Z,2.37
2022-09-13T15:10:32.934Z,2.20
2022-09-13T15:13:08.724Z,1.80
2022-09-13T15:15:39.412Z,2.07
2022-09-13T15:18:36.258Z,1.80
2022-09-13T15:21:17.783Z,1.80
2022-09-13T15:23:51.024Z,1.83
2022-09-13T15:26:25.531Z,1.67
2022-09-13T15:29:03.983Z,1.57
2022-09-13T15:31:34.228Z,2.10
2022-09-13T15:34:21.938Z,1.83
2022-09-13T15:37:13.540Z,1.93
2022-09-13T15:40:22.457Z,1.50
2022-09-13T15:42:51.756Z,1.90
2022-09-13T15:45:21.039Z,1.70
2022-09-13T15:47:50.542Z,1.58
2022-09-13T15:50:30.880Z,1.40
2022-09-13T15:53:01.479Z,1.40
2022-09-13T15:55:30.960Z,1.73
2022-09-13T15:57:57.665Z,1.50
2022-09-13T16:00:28.119Z,1.30
2022-09-13T16:02:54.923Z,1.33
2022-09-13T16:05:21.849Z,1.20
2022-09-13T16:07:49.156Z,1.40
2022-09-13T16:10:22.562Z,1.10
2022-09-13T16:12:49.581Z,1.20
2022-09-13T16:15:16.869Z,1.33
2022-09-13T16:17:43.554Z,1.40
2022-09-13T16:20:15.322Z,1.47
2022-09-13T16:22:43.104Z,1.40
2022-09-13T16:25:13.171Z,1.50
2022-09-13T16:27:42.671Z,1.40
2022-09-13T16:30:16.547Z,1.40
2022-09-13T16:32:43.636Z,1.20
2022-09-13T16:35:12.567Z,1.20
2022-09-13T16:37:41.010Z,1.33
2022-09-13T16:40:10.087Z,1.37
2022-09-13T16:42:37.050Z,1.40
2022-09-13T16:45:04.993Z,1.30
2022-09-13T16:47:31.674Z,1.20
2022-09-13T16:49:58.366Z,1.20
2022-09-13T16:52:25.151Z,1.37
2022-09-13T16:54:52.720Z,1.27
2022-09-13T16:57:19.976Z,1.47
2022-09-13T16:59:48.290Z,1.50
2022-09-13T17:02:15.113Z,1.53
2022-09-13T17:04:41.905Z,1.90
2022-09-13T17:07:08.770Z,1.70
2022-09-13T17:09:35.696Z,1.80
2022-09-13T17:12:02.897Z,2.40
2022-09-13T17:14:30.243Z,2.90
2022-09-13T17:16:58.042Z,3.03
2022-09-13T17:19:31.178Z,3.47
2022-09-13T17:21:58.041Z,3.53
2022-09-13T17:24:27.344Z,3.80
2022-09-13T17:26:56.602Z,3.07
2022-09-13T17:29:25.321Z,3.60
2022-09-13T17:31:52.700Z,3.10
2022-09-13T17:34:19.455Z,3.57
2022-09-13T17:36:50.425Z,3.10
2022-09-13T17:39:18.912Z,3.63
2022-09-13T17:41:45.636Z,3.70
2022-09-13T17:44:12.454Z,3.80
2022-09-13T17:46:39.253Z,3.67
2022-09-13T17:49:06.176Z,3.37
2022-09-13T17:51:33.775Z,3.23
2022-09-13T17:54:05.829Z,3.43
2022-09-13T17:56:42.489Z,3.50
2022-09-13T17:59:19.926Z,3.53
2022-09-13T18:01:50.490Z,3.20
2022-09-13T18:04:21.764Z,3.70
2022-09-13T18:06:50.968Z,3.60
2022-09-13T18:09:17.925Z,3.37
2022-09-13T18:11:45.041Z,3.70
2022-09-13T18:14:17.214Z,3.70
2022-09-13T18:16:44.920Z,3.77
2022-09-13T18:19:12.586Z,3.97
2022-09-13T18:21:39.541Z,3.80
2022-09-13T18:24:07.170Z,3.77
2022-09-13T18:26:34.580Z,3.70
2022-09-13T18:29:07.075Z,3.87
2022-09-13T18:31:35.711Z,3.87
2022-09-13T18:34:06.946Z,3.50
2022-09-13T18:36:35.429Z,3.40
2022-09-13T18:39:04.913Z,3.67
2022-09-13T18:41:40.301Z,4.30
2022-09-13T18:44:10.174Z,3.90
2022-09-13T18:46:38.075Z,3.60
2022-09-13T18:49:06.381Z,3.80
2022-09-13T18:51:41.522Z,4.13
2022-09-13T18:54:13.063Z,3.70
2022-09-13T18:56:41.218Z,3.63
2022-09-13T18:59:08.498Z,3.83
2022-09-13T19:01:41.758Z,4.30
2022-09-13T19:04:14.151Z,3.90
2022-09-13T19:06:47.007Z,3.73
2022-09-13T19:09:15.743Z,3.80
2022-09-13T19:11:47.666Z,3.70
2022-09-13T19:14:22.717Z,4.27
2022-09-13T19:16:51.096Z,3.23
2022-09-13T19:19:18.622Z,3.10
2022-09-13T19:21:45.496Z,3.90
2022-09-13T19:24:17.718Z,3.83
2022-09-13T19:26:45.785Z,3.87
2022-09-13T19:29:16.170Z,3.87
2022-09-13T19:31:48.184Z,4.27
2022-09-13T19:34:17.945Z,3.50
2022-09-13T19:36:45.475Z,3.87
2022-09-13T19:39:13.095Z,3.90
2022-09-13T19:41:41.303Z,4.13
2022-09-13T19:44:10.701Z,3.70
2022-09-13T19:46:40.518Z,3.77
2022-09-13T19:49:12.043Z,4.50
2022-09-13T19:51:40.553Z,3.50
2022-09-13T19:54:11.194Z,4.07
2022-09-13T19:56:42.566Z,3.57
2022-09-13T19:59:13.331Z,4.17
2022-09-13T20:01:44.755Z,3.90
2022-09-13T20:04:15.504Z,4.20
2022-09-13T20:06:46.213Z,4.80
2022-09-13T20:09:16.299Z,4.67
2022-09-13T20:11:45.377Z,5.00
2022-09-13T20:14:14.856Z,5.13
2022-09-13T20:16:45.107Z,4.77
2022-09-13T20:19:39.398Z,4.80
2022-09-13T20:22:07.139Z,4.50
2022-09-13T20:24:33.871Z,4.33
2022-09-13T20:27:00.635Z,4.70
2022-09-13T20:29:27.371Z,4.83
2022-09-13T20:31:55.305Z,4.60
2022-09-13T20:34:22.181Z,4.40
2022-09-13T20:36:49.038Z,4.30
2022-09-13T20:39:15.867Z,4.37
2022-09-13T20:41:43.492Z,4.63
2022-09-13T20:44:10.653Z,4.47
2022-09-13T20:46:39.126Z,4.10
2022-09-13T20:49:08.477Z,4.53
2022-09-13T20:51:35.253Z,4.87
2022-09-13T20:54:02.267Z,4.67
2022-09-13T20:56:30.361Z,5.37
2022-09-13T20:59:00.323Z,5.37
2022-09-13T21:01:30.208Z,6.93
2022-09-13T21:03:58.800Z,6.07
2022-09-13T21:06:29.876Z,6.37
2022-09-13T21:08:59.772Z,6.40
2022-09-13T21:11:33.819Z,5.83
2022-09-13T21:14:08.259Z,6.07
2022-09-13T21:16:38.997Z,6.50
2022-09-13T21:19:06.561Z,5.67
2022-09-13T21:21:37.140Z,6.03
2022-09-13T21:24:05.776Z,6.23
2022-09-13T21:26:33.150Z,6.53
2022-09-13T21:29:00.323Z,6.07
2022-09-13T21:31:33.514Z,5.97
2022-09-13T21:34:12.731Z,6.10
2022-09-13T21:36:39.908Z,5.90
2022-09-13T21:39:07.106Z,5.40
2022-09-13T21:41:34.486Z,5.37
2022-09-13T21:44:01.615Z,5.90
2022-09-13T21:46:32.032Z,5.77
2022-09-13T21:49:02.911Z,5.27
2022-09-13T21:51:39.938Z,4.80
2022-09-13T21:54:11.402Z,5.23
2022-09-13T21:56:42.076Z,4.77
2022-09-13T21:59:14.626Z,5.27
2022-09-13T22:01:46.468Z,4.50
2022-09-13T22:04:24.083Z,5.10
2022-09-13T22:06:53.370Z,4.97
2022-09-13T22:09:26.591Z,4.80
2022-09-13T22:11:53.779Z,4.33
2022-09-13T22:14:22.158Z,4.13
2022-09-13T22:16:50.749Z,5.00
2022-09-13T22:19:23.576Z,4.10
2022-09-13T22:21:59.077Z,4.17
2022-09-13T22:24:31.110Z,4.47
2022-09-13T22:26:58.958Z,4.73
2022-09-13T22:29:26.459Z,4.50
2022-09-13T22:31:53.930Z,4.50
2022-09-13T22:34:24.858Z,4.90
2022-09-13T22:36:55.113Z,5.70
2022-09-13T22:39:23.827Z,4.40
2022-09-13T22:41:52.912Z,4.90
2022-09-13T22:44:19.718Z,4.63
2022-09-13T22:46:47.121Z,5.37
2022-09-13T22:49:17.437Z,4.87
2022-09-13T22:51:45.974Z,4.60
2022-09-13T22:54:14.895Z,4.73
2022-09-13T22:56:41.885Z,5.00
2022-09-13T22:59:16.031Z,4.97
2022-09-13T23:01:42.947Z,4.27
2022-09-13T23:04:10.327Z,4.80
2022-09-13T23:06:37.574Z,4.63
2022-09-13T23:09:08.144Z,4.53
2022-09-13T23:11:38.173Z,5.23
2022-09-13T23:14:11.934Z,4.40
2022-09-13T23:16:45.115Z,4.10
2022-09-13T23:19:13.897Z,4.40
2022-09-13T23:21:42.397Z,4.07
2022-09-13T23:24:17.050Z,4.03
2022-09-13T23:26:45.609Z,3.70
2022-09-13T23:29:16.605Z,4.67
2022-09-13T23:31:43.826Z,4.40
2022-09-13T23:34:12.698Z,4.37
2022-09-13T23:36:41.919Z,6.00
2022-09-13T23:39:16.233Z,4.30
2022-09-13T23:41:45.676Z,4.07
2022-09-13T23:44:13.290Z,3.93
2022-09-13T23:46:40.350Z,4.23
2022-09-13T23:49:07.043Z,4.87
2022-09-13T23:51:33.783Z,4.53
2022-09-13T23:54:01.054Z,4.43
2022-09-13T23:56:30.954Z,4.60
2022-09-13T23:59:00.061Z,4.20
